2019-06-17T11:41:35+02:00 GET /shop/termek/sweex-jack-xlr-atalakito-szurke-10m-swop15120e100/1622174 HTTP/1.1
2019-06-17T12:24:55+02:00 GET /shop/termek/philips-gc214240-easyspeed-plus-gozolos-vasalo-basic-garancia/1709509 HTTP/1.1
2019-06-17T12:32:54+02:00 GET /shop/termek/roline-parhuzamos-osszekoto-szurke-18m-1101351850/1572025 HTTP/1.1
2019-06-17T12:37:55+02:00 GET /shop/termek/meade-polaris-70mm-eq-refraktoros-teleszkop/1692079 HTTP/1.1
2019-06-17T12:44:15+02:00 GET /shop/termek/fieldmann-fdk-2003e-a-ket-vagotarcsas-korfuresz/1467489 HTTP/1.1
2019-06-17T13:26:56+02:00 GET /shop/termek/aeg-dpb5650m-teleszkopos-paraelszivo/1638537 HTTP/1.1
2019-06-17T13:51:49+02:00 GET /shop/termek/delock-displayport-dvid-atalakito-fekete-5m-82593/290206 HTTP/1.1
2019-06-17T14:03:06+02:00 GET /shop/termek/art-hdmi-osszekoto-fekete-15m-kabhdhd-15m-aloem36/1153320 HTTP/1.1
2019-06-17T14:24:53+02:00 GET /shop/termek/sencor-sws-260-meteorologiai-allomas/1510129 HTTP/1.1
2019-06-17T14:42:59+02:00 GET /shop/termek/art-p101s-celling-mount/1514188 HTTP/1.1
2019-06-17T14:44:49+02:00 GET /shop/termek/art-p102-ceiling-holder-szurke/1495335 HTTP/1.1
2019-06-17T14:53:49+02:00 GET /shop/termek/gardena-20220-kesztyu-ulteteshez-es-novenyapolashoz-7-s-meret-basic-garancia/1431701 HTTP/1.1
2019-06-17T14:58:33+02:00 GET /shop/termek/sencor-sws-51-b-meteorologiai-allomas/1453682 HTTP/1.1
2019-06-17T15:17:04+02:00 GET /shop/termek/sencor-sws-51-b-meteorologiai-allomas/1453682 HTTP/1.1
2019-06-17T16:53:40+02:00 GET /shop/termek/valueline-hdmi-osszekoto-fekete-15m-vgvt34000b150/1317338 HTTP/1.1
2019-06-18T15:35:53+02:00 GET /shop/termek/sandberg-displayport-1212a-hdmi-20-atalakito-fekete-20cm-50902/1546030 HTTP/1.1
2019-06-18T16:22:37+02:00 GET /shop/termek/sencor-svc-7020bk-mini-robot-porszivo/1455353 HTTP/1.1
2019-06-18T17:58:37+02:00 GET /shop/termek/delock-sata-tap-btx-6-pin-tapkabel-fekete-21cm-82924/207291 HTTP/1.1
2019-06-18T20:10:22+02:00 GET /shop/termek/curver-gorgos-szemetes-muanyag-110l-sargafekete/1569942 HTTP/1.1
2019-06-18T20:44:58+02:00 GET /shop/termek/delock-dvii-toldo-fekete-4cm-65225/212011 HTTP/1.1
2019-06-18T21:04:44+02:00 GET /shop/termek/curver-szerszamoslada-premium-26-xl/662829 HTTP/1.1
2019-06-18T22:20:33+02:00 GET /shop/termek/delock-usb-20-type-c-micro-usb-atalakito-fekete-5cm-65678/1348073 HTTP/1.1
2019-06-19T00:07:45+02:00 GET /shop/termek/gardena-825420-vizcsatlakozo-basic-garancia/1593545 HTTP/1.1
2019-06-19T01:01:10+02:00 GET /shop/termek/logilink-utp-osszekoto-piros-50cm-cq2024s/1081622 HTTP/1.1
2019-06-19T03:50:25+02:00 GET /shop/termek/nobo-fehertabla-zomancozott-150x100-cm-aluminium-keret-prestige/1541573 HTTP/1.1
2019-06-19T04:38:12+02:00 GET /shop/termek/curver-gorgos-szemetes-muanyag-110l-sargafekete/1569942 HTTP/1.1
2019-06-19T05:25:42+02:00 GET /shop/termek/meade-lightbridge-mini-114-mmes-teleszkop/1692054 HTTP/1.1
2019-06-19T11:08:45+02:00 GET /shop/termek/levenhuk-heritage-base-15x50-ketszemes-tavcso/1692236 HTTP/1.1
2019-06-19T11:30:25+02:00 GET /shop/termek/bresser-national-geographic-40640x-mikroszkop-okostelefon-adapterrel/1692204 HTTP/1.1
2019-06-19T11:31:23+02:00 GET /shop/termek/bresser-hunter-10x50-ketszemes-tavcso/1691493 HTTP/1.1
2019-06-19T11:49:41+02:00 GET /shop/termek/meade-rainforest-pro-10x32-ketszemes-tavcso/1692549 HTTP/1.1
2019-06-20T10:55:42+02:00 GET /shop/termek/levenhuk-labzz-t1/1691571 HTTP/1.1
2019-06-20T11:31:30+02:00 GET /shop/termek/bresser-national-geographic-130650-eq/1691685 HTTP/1.1
2019-06-20T11:41:33+02:00 GET /shop/termek/curver-gorgos-szemetes-muanyag-110l-sargafekete/1569942 HTTP/1.1
2019-06-20T10:55:42+02:00 GET /shop/termek/levenhuk-labzz-t1/1691571 HTTP/1.1
2019-06-20T11:31:30+02:00 GET /shop/termek/bresser-national-geographic-130650-eq/1691685 HTTP/1.1
2019-06-20T11:41:33+02:00 GET /shop/termek/curver-gorgos-szemetes-muanyag-110l-sargafekete/1569942 HTTP/1.1
2019-06-20T15:11:29+02:00 GET /shop/termek/philips-s731067-shaver-series-7000-nedves-es-szaraz-elektromos-borotva/1692791 HTTP/1.1
2019-06-20T15:38:14+02:00 GET /shop/termek/philips-bre60500-satinelle-advanced-nedves-es-szaraz-epilator/1694524 HTTP/1.1
2019-06-20T21:00:26+02:00 GET /shop/termek/philips-fc837909-performer-compact-porzsakos-porszivo/1461209 HTTP/1.1
2019-06-20T21:23:41+02:00 GET /shop/termek/philips-hr776-konyhai-robotgep/769800 HTTP/1.1
2019-06-21T06:29:13+02:00 GET /shop/termek/whitenergy-dell-latitude-e6500-07207/300041 HTTP/1.1
2019-06-21T06:29:13+02:00 GET /shop/termek/whitenergy-dell-latitude-e6500-07207/300041 HTTP/1.1
2019-06-21T06:29:13+02:00 GET /shop/termek/whitenergy-dell-latitude-e6500-07207/300041 HTTP/1.1
2019-06-21T06:29:13+02:00 GET /shop/termek/whitenergy-dell-latitude-e6500-07207/300041 HTTP/1.1
2019-06-21T09:25:43+02:00 GET /shop/termek/levenhuk-strike-1000-pro/1691618 HTTP/1.1
2019-06-21T09:25:43+02:00 GET /shop/termek/levenhuk-strike-1000-pro/1691618 HTTP/1.1
2019-06-21T18:17:17+02:00 GET /shop/termek/bosch-bgc2u230-easy-porszivo/1466214 HTTP/1.1
2019-06-21T18:38:48+02:00 GET /shop/termek/curver-pedalos-szemetes-femhatasu-5-l/1083270 HTTP/1.1
2019-06-21T20:26:45+02:00 GET /shop/termek/curver-pedalos-szemetes-femhatasu-5-l/1083270 HTTP/1.1
2019-06-22T03:56:24+02:00 GET /shop/termek/qoltec-7282-dell-inspiron-13r/509783 HTTP/1.1
2019-06-22T07:29:04+02:00 GET /shop/termek/karcher-13481110-wd-4-tobbfunkcios-porszivo-basic-garancia/1605695 HTTP/1.1
2019-06-22T08:00:37+02:00 GET /shop/termek/curver-gorgos-szemetes-muanyag-110l-sargafekete/1569942 HTTP/1.1
2019-06-22T08:01:18+02:00 GET /shop/termek/hecht-2094-plus-keziszerszam-keszlet-94-dbos-2dbcsomag/1693656 HTTP/1.1
2019-06-22T08:29:56+02:00 GET /shop/termek/levenhuk-rainbow-50l-mikroszkop-lila/1691594 HTTP/1.1
2019-06-22T03:56:24+02:00 GET /shop/termek/qoltec-7282-dell-inspiron-13r/509783 HTTP/1.1
2019-06-24T08:38:32+02:00 GET /shop/termek/levenhuk-atom-20x50-ketszemes-tavcso/1694022 HTTP/1.1
2019-06-24T08:39:33+02:00 GET /shop/termek/levenhuk-sherman-base-8x32-ketszemes-tavcso/1692402 HTTP/1.1
2019-06-24T10:45:33+02:00 GET /shop/termek/curver-pedalos-szemetes-femhatasu-5-l/1083270 HTTP/1.1
2019-06-24T11:02:43+02:00 GET /shop/termek/curver-pedalos-szemetes-femhatasu-5-l/1083270 HTTP/1.1
2019-06-24T16:07:54+02:00 GET /shop/termek/fieldmann-fvc-2001-ec-buvarszivattyu/1526545 HTTP/1.1
2019-06-24T16:33:38+02:00 GET /shop/termek/sony-dual-shock-4-charging-station/530291 HTTP/1.1
2019-06-24T18:07:06+02:00 GET /shop/termek/curver-pedalos-szemetes-femhatasu-5-l/1083270 HTTP/1.1
2019-06-25T03:02:33+02:00 GET /shop/termek/curver-pedalos-szemetes-femhatasu-5-l/1083270 HTTP/1.1
2019-06-25T04:50:36+02:00 GET /shop/termek/curver-pedalos-szemetes-femhatasu-5-l/1083270 HTTP/1.1
2019-06-25T08:17:25+02:00 GET /shop/termek/levenhuk-skyline-120x1000-eq/1695723 HTTP/1.1
2019-06-25T08:20:28+02:00 GET /shop/termek/levenhuk-rainbow-2l-plus-mikroszkop-zold/1691543 HTTP/1.1
2019-06-25T08:21:25+02:00 GET /shop/termek/levenhuk-broadway-325f-szinhazi-latcso-ledfennyel-es-lanccal-piros/1692053 HTTP/1.1
2019-06-25T12:10:38+02:00 GET /shop/termek/curver-gorgos-szemetes-muanyag-110l-sargafekete/1569942 HTTP/1.1
2019-06-25T12:59:36+02:00 GET /shop/termek/curver-pedalos-szemetes-femhatasu-5-l/1083270 HTTP/1.1
2019-06-25T13:03:32+02:00 GET /shop/termek/curver-pedalos-szemetes-femhatasu-5-l/1083270 HTTP/1.1
2019-06-25T14:34:18+02:00 GET /shop/termek/philips-hx697133-sonicare-flexcare-szonikus-elektromos-fogkefe/1695427 HTTP/1.1
2019-06-25T15:42:45+02:00 GET /shop/termek/karcher-13246300-k-5-premium-full-control-plus-magasnyomasu-moso/1563744 HTTP/1.1
2019-06-25T15:45:24+02:00 GET /shop/termek/curver-pedalos-szemetes-femhatasu-5-l/1083270 HTTP/1.1
2019-06-25T14:34:18+02:00 GET /shop/termek/philips-hx697133-sonicare-flexcare-szonikus-elektromos-fogkefe/1695427 HTTP/1.1
2019-06-25T15:42:45+02:00 GET /shop/termek/karcher-13246300-k-5-premium-full-control-plus-magasnyomasu-moso/1563744 HTTP/1.1
2019-06-25T15:45:24+02:00 GET /shop/termek/curver-pedalos-szemetes-femhatasu-5-l/1083270 HTTP/1.1
2019-06-25T16:24:13+02:00 GET /shop/termek/electrolux-ems21400s-mikrohullamu-suto/1166698 HTTP/1.1
2019-06-25T16:28:55+02:00 GET /shop/termek/bosch-pue611bb1e-serie-4-keret-nelkuli-kivitel-60-cm-indukcios-uvegkeramia-fozolap-basic-garancia/1647250 HTTP/1.1
2019-06-25T16:31:42+02:00 GET /shop/termek/electrolux-espc72rr-porzsak-nelkuli-porszivo/1600743 HTTP/1.1
2019-06-25T18:41:11+02:00 GET /shop/termek/philips-hp866800-stylecare-autorotating-airstyler-hajgondorito/1458113 HTTP/1.1
2019-06-25T19:49:10+02:00 GET /shop/termek/philips-s555006-shaver-series-5000-nedves-es-szaraz-elektromos-borotva/1610237 HTTP/1.1
2019-06-26T03:16:14+02:00 GET /shop/termek/bosch-muz45ag1-asian-vegetable-disc-stainless-steel-basic-garancia/1648589 HTTP/1.1
2019-06-26T03:25:37+02:00 GET /shop/termek/philips-hx683035-sonicare-protectiveclean-4500-szonikus-elektromos-fogkefe/1689425 HTTP/1.1
2019-06-26T04:20:14+02:00 GET /shop/termek/fieldmann-fzd-5015e-elektromos-kerti-aprito/1564765 HTTP/1.1
2019-06-26T04:30:26+02:00 GET /shop/termek/philips-s312006-elektromos-borotva/1453754 HTTP/1.1
2019-06-26T05:09:06+02:00 GET /shop/termek/neff-s413g60s0e-n-50-integralhato-mosogatogep/1634662 HTTP/1.1
2019-06-26T06:44:31+02:00 GET /shop/termek/victoria-curver-csipke-hatasu-kosar-mokka/1258999 HTTP/1.1
2019-06-26T06:49:09+02:00 GET /shop/termek/karcher-11981250-vc-3-porszivo/1563147 HTTP/1.1
2019-06-26T08:12:43+02:00 GET /shop/termek/bosch-hba534es0-serie-4-beepitheto-suto-nemesacel/1639690 HTTP/1.1
2019-06-26T10:08:14+02:00 GET /shop/termek/philips-fc802103-porzsak-sbag-tartos-kialakitas/1559942 HTTP/1.1
2019-06-26T10:40:54+02:00 GET /shop/termek/fieldmann-fzg-1000-faszenes-kerti-asztali-grill/1428265 HTTP/1.1
2019-06-26T10:44:15+02:00 GET /shop/termek/fieldmann-fzg-1003-hordozhato-grillsuto-termotaskaval/1428274 HTTP/1.1
2019-06-26T13:24:12+02:00 GET /shop/termek/sony-dual-shock-4-charging-station/530291 HTTP/1.1
2019-06-26T23:49:43+02:00 GET /shop/termek/philips-hr289500-daily-collection-mini-turmix-0-6-l-350-w/1688449 HTTP/1.1
2019-06-27T02:13:44+02:00 GET /shop/termek/gyerekjatek-fryxgames-a-mars-terraformalasa-tarsasjatek/1727141 HTTP/1.1
2019-06-27T03:11:00+02:00 GET /shop/termek/curver-billenos-szemetes-50-l-clickit-feher/786777 HTTP/1.1
2019-06-27T08:42:44+02:00 GET /shop/termek/neff-t16bd56n0-n-70-onalloan-beepitheto-elektromos-fozolap-touch-control-vezerlessel/1634647 HTTP/1.1
2019-06-27T09:12:28+02:00 GET /shop/termek/electrolux-ehh6240isk-indukcios-fozolap/1452318 HTTP/1.1
2019-06-27T13:24:31+02:00 GET /shop/termek/bosch-mmr08r2-aprito/1317275 HTTP/1.1
2019-06-27T15:30:04+02:00 GET /shop/termek/karcher-11001300-szonyeg-es-karpittisztito-puzzi-101-basic-garancia/1713728 HTTP/1.1
2019-06-27T20:16:52+02:00 GET /shop/termek/fieldmann-fznr-1010-agvago-elcsuszo-vagoelekkel/1541532 HTTP/1.1
2019-06-27T23:16:38+02:00 GET /shop/termek/bosch-muz5fw1-husdaralo-mum5hoz/1466082 HTTP/1.1
2019-06-28T05:48:29+02:00 GET /shop/termek/bosch-muz5fw1-husdaralo-mum5hoz/1466082 HTTP/1.1
2019-06-28T06:42:45+02:00 GET /shop/termek/bosch-hba573es0-beepitheto-suto-nemesacel-ezust/1639719 HTTP/1.1